Weather History for Somerset, KY

Change the Weather History Date:

Friday, February 21, 2014

  Actual Average Record
Temperature  
Mean Temperature 44 °F -  
Max Temperature 55 °F 51 °F 71 °F (1997)
Min Temperature 32 °F 31 °F 19 °F (1999)
Degree Days  
Heating Degree Days 22    
Moisture  
Dew Point 30 °F    
Average Humidity 64    
Maximum Humidity 100    
Minimum Humidity 28    
Precipitation  
Precipitation 0.67 in - - ()
Sea Level Pressure  
Sea Level Pressure 29.97 in    
Wind  
Wind Speed 9 mph (WSW)    
Max Wind Speed 22 mph    
Max Gust Speed 30 mph    
Visibility 10 miles    
Events Rain , Thunderstorm    
Averages and records for this station are not official NWS values.
T = Trace of Precipitation, MM = Missing Value Source: NWS Daily Summary

Daily Weather History Graph

Daily Weather History Graph

Search for Another Location

Airport:

Trip Planner

Search our weather history database for the weather conditions in past years. The results will help you decide how hot, cold, wet, or windy it might be!

Date:

Astronomy

Feb. 21, 2014 Rise Set
Actual Time 7:19 AM EST 6:24 PM EST
Civil Twilight 6:53 AM EST 6:51 PM EST
Nautical Twilight 6:23 AM EST 7:21 PM EST
Astronomical Twilight 5:53 AM EST 7:51 PM EST
Moon 12:08 AM EST (2/21) 10:52 AM EST (2/21)
Length of Visible Light 11h 57m
Length of Day
11h 04m
Waning Gibbous, 61% of the Moon is Illuminated
Feb 21
Waning Gibbous
Feb 22
Last Quarter
Mar 1
New
Mar 8
First Quarter
Mar 16
Full

Hourly Weather History & Observations

Time (EST) Temp. Windchill Dew Point Humidity Pressure Visibility Wind Dir Wind Speed Gust Speed Precip Events Conditions
12:15 AM 55.4 °F - 53.6 °F 94% 29.72 in 7.0 mi SW 6.9 mph - 0.04 in Rain , Thunderstorm Thunderstorms and Rain
12:35 AM 55.4 °F - 55.4 °F 100% 29.71 in 5.0 mi SW 10.4 mph 19.6 mph 0.13 in Rain , Thunderstorm Heavy Thunderstorms and Rain
12:55 AM 55.4 °F - 55.4 °F 100% 29.71 in 5.0 mi SW 8.1 mph 16.1 mph 0.26 in Rain , Thunderstorm Heavy Thunderstorms and Rain
1:15 AM 55.4 °F - 55.4 °F 100% 29.70 in 5.0 mi South 6.9 mph - 0.11 in Rain , Thunderstorm Heavy Thunderstorms and Rain
1:35 AM 51.8 °F - 50.0 °F 94% 29.75 in 5.0 mi NW 20.7 mph 27.6 mph 0.22 in Rain , Thunderstorm Thunderstorms and Rain
1:55 AM 46.4 °F 40.1 °F 42.8 °F 87% 29.81 in 7.0 mi WNW 15.0 mph 25.3 mph 0.28 in Rain Rain
2:15 AM 44.6 °F 37.2 °F 41.0 °F 87% 29.82 in 7.0 mi WNW 17.3 mph 25.3 mph 0.06 in Rain Light Rain
2:35 AM 42.8 °F 36.6 °F 41.0 °F 93% 29.83 in 10.0 mi West 11.5 mph 20.7 mph 0.08 in Rain Light Rain
2:55 AM 42.8 °F 39.3 °F 39.2 °F 87% 29.83 in 10.0 mi WNW 5.8 mph 16.1 mph 0.09 in Rain Light Rain
3:15 AM 41.0 °F 33.5 °F 37.4 °F 87% 29.86 in 10.0 mi West 13.8 mph 19.6 mph N/A Rain Light Rain
3:35 AM 41.0 °F 34.3 °F 37.4 °F 87% 29.90 in 10.0 mi West 11.5 mph 17.3 mph 0.01 in Rain Rain
3:55 AM 41.0 °F 32.2 °F 37.4 °F 87% 29.90 in 10.0 mi WNW 18.4 mph 24.2 mph 0.03 in Rain Light Rain
4:15 AM 37.4 °F 29.8 °F 35.6 °F 93% 29.92 in 10.0 mi West 11.5 mph 21.9 mph N/A Rain Light Rain
4:35 AM 37.4 °F 31.4 °F 35.6 °F 93% 29.91 in 10.0 mi West 8.1 mph - N/A   Drizzle
4:55 AM 37.4 °F 33.8 °F 35.6 °F 93% 29.91 in 10.0 mi WSW 4.6 mph - N/A   Light Drizzle
5:15 AM 37.4 °F 33.8 °F 35.6 °F 93% 29.91 in 10.0 mi South 4.6 mph - N/A   Overcast
5:35 AM 37.4 °F 34.9 °F 35.6 °F 93% 29.90 in 10.0 mi SSW 3.5 mph - N/A   Light Drizzle
5:55 AM 37.4 °F 34.9 °F 35.6 °F 93% 29.91 in 10.0 mi South 3.5 mph - N/A   Overcast
6:15 AM 37.4 °F 34.9 °F 35.6 °F 93% 29.92 in 10.0 mi South 3.5 mph - N/A   Overcast
6:35 AM 37.4 °F - 35.6 °F 93% 29.92 in 10.0 mi Calm Calm - N/A   Mostly Cloudy
6:55 AM 35.6 °F - 35.6 °F 100% 29.93 in 10.0 mi Calm Calm - N/A   Scattered Clouds
7:15 AM 35.6 °F 32.8 °F 35.6 °F 100% 29.94 in 10.0 mi SSW 3.5 mph - N/A   Scattered Clouds
7:35 AM 35.6 °F 32.8 °F 35.6 °F 100% 29.95 in 10.0 mi South 3.5 mph - N/A   Clear
7:55 AM 35.6 °F 31.7 °F 33.8 °F 93% 29.96 in 10.0 mi SSW 4.6 mph - N/A   Clear
8:15 AM 35.6 °F 31.7 °F 33.8 °F 93% 29.96 in 10.0 mi SSW 4.6 mph - N/A   Clear
8:35 AM 39.2 °F 33.6 °F 33.8 °F 81% 29.97 in 10.0 mi SW 8.1 mph - N/A   Clear
8:55 AM 41.0 °F 33.9 °F 32.0 °F 70% 29.97 in 10.0 mi WSW 12.7 mph 16.1 mph N/A   Clear
9:15 AM 42.8 °F 36.6 °F 32.0 °F 66% 29.98 in 10.0 mi WSW 11.5 mph 18.4 mph N/A   Clear
9:35 AM 42.8 °F 35.4 °F 32.0 °F 66% 29.98 in 10.0 mi WSW 15.0 mph 20.7 mph 0.01 in   Clear
9:55 AM 44.6 °F 37.2 °F 32.0 °F 61% 29.99 in 10.0 mi WSW 17.3 mph 23.0 mph 0.01 in   Clear
10:15 AM 44.6 °F 37.8 °F 32.0 °F 61% 29.98 in 10.0 mi WSW 15.0 mph - N/A   Scattered Clouds
10:35 AM 44.6 °F 36.1 °F 32.0 °F 61% 29.99 in 10.0 mi WSW 21.9 mph 27.6 mph N/A   Scattered Clouds
10:55 AM 44.6 °F 36.1 °F 32.0 °F 61% 30.00 in 10.0 mi West 21.9 mph 29.9 mph N/A   Mostly Cloudy
11:15 AM 44.6 °F 36.9 °F 30.2 °F 57% 30.00 in 10.0 mi WSW 18.4 mph 26.5 mph N/A   Scattered Clouds
11:35 AM 44.6 °F 36.1 °F 28.4 °F 53% 30.00 in 10.0 mi WSW 21.9 mph 28.8 mph N/A   Scattered Clouds
11:55 AM 46.4 °F 39.5 °F 26.6 °F 46% 30.01 in 10.0 mi WSW 17.3 mph 28.8 mph N/A   Scattered Clouds
12:15 PM 46.4 °F 39.8 °F 28.4 °F 50% 30.01 in 10.0 mi WSW 16.1 mph 24.2 mph N/A   Scattered Clouds
12:35 PM 46.4 °F 40.7 °F 26.6 °F 46% 30.01 in 10.0 mi WSW 12.7 mph 21.9 mph N/A   Scattered Clouds
12:55 PM 46.4 °F 40.4 °F 26.6 °F 46% 30.01 in 10.0 mi West 13.8 mph 23.0 mph N/A   Scattered Clouds
1:15 PM 48.2 °F - 26.6 °F 43% 30.00 in 10.0 mi West 12.7 mph 20.7 mph N/A   Scattered Clouds
1:35 PM 48.2 °F - 24.8 °F 40% 30.00 in 10.0 mi West 12.7 mph 23.0 mph N/A   Clear
1:55 PM 50.0 °F - 21.2 °F 32% 29.99 in 10.0 mi West 11.5 mph 21.9 mph N/A   Clear
2:15 PM 50.0 °F - 23.0 °F 35% 30.00 in 10.0 mi West 20.7 mph 28.8 mph N/A   Clear
2:35 PM 50.0 °F - 23.0 °F 35% 29.99 in 10.0 mi West 13.8 mph - N/A   Clear
2:55 PM 50.0 °F - 23.0 °F 35% 30.01 in 10.0 mi WSW 17.3 mph 23.0 mph N/A   Clear
3:15 PM 50.0 °F - 21.2 °F 32% 30.01 in 10.0 mi WSW 15.0 mph 24.2 mph N/A   Clear
3:35 PM 50.0 °F - 21.2 °F 32% 30.01 in 10.0 mi West 12.7 mph 19.6 mph N/A   Clear
3:55 PM 50.0 °F - 19.4 °F 30% 30.02 in 10.0 mi WNW 11.5 mph 18.4 mph N/A   Clear
4:15 PM 50.0 °F - 21.2 °F 32% 30.02 in 10.0 mi WSW 8.1 mph - N/A   Clear
4:35 PM 51.8 °F - 19.4 °F 28% 30.03 in 10.0 mi West 12.7 mph 19.6 mph N/A   Clear
4:55 PM 50.0 °F - 17.6 °F 28% 30.04 in 10.0 mi WSW 15.0 mph - N/A   Clear
5:15 PM 50.0 °F - 17.6 °F 28% 30.05 in 10.0 mi WSW 15.0 mph - N/A   Clear
5:35 PM 48.2 °F - 17.6 °F 30% 30.05 in 10.0 mi WSW 9.2 mph - N/A   Clear
5:55 PM 46.4 °F 42.9 °F 19.4 °F 34% 30.04 in 10.0 mi WSW 6.9 mph - N/A   Clear
6:15 PM 44.6 °F 41.4 °F 19.4 °F 37% 30.05 in 10.0 mi WSW 5.8 mph - N/A   Clear
6:35 PM 44.6 °F 42.2 °F 17.6 °F 34% 30.05 in 10.0 mi SW 4.6 mph - N/A   Clear
6:55 PM 44.6 °F 42.2 °F 19.4 °F 37% 30.05 in 10.0 mi SW 4.6 mph - N/A   Clear
7:15 PM 42.8 °F 41.1 °F 19.4 °F 39% 30.06 in 10.0 mi SW 3.5 mph - N/A   Clear
7:35 PM 42.8 °F - 19.4 °F 39% 30.06 in 10.0 mi Calm Calm - N/A   Clear
7:55 PM 41.0 °F - 21.2 °F 45% 30.07 in 10.0 mi Calm Calm - N/A   Clear
8:15 PM 41.0 °F - 21.2 °F 45% 30.07 in 10.0 mi Calm Calm - N/A   Clear
8:35 PM 41.0 °F - 21.2 °F 45% 30.07 in 10.0 mi Calm Calm - N/A   Clear
8:55 PM 37.4 °F - 21.2 °F 52% 30.07 in 10.0 mi Calm Calm - N/A   Clear
9:15 PM 37.4 °F - 23.0 °F 56% 30.08 in 10.0 mi Calm Calm - N/A   Clear
9:35 PM 35.6 °F - 23.0 °F 60% 30.08 in 10.0 mi Calm Calm - N/A   Clear
9:55 PM 37.4 °F - 23.0 °F 56% 30.08 in 10.0 mi Calm Calm - N/A   Clear
10:15 PM 35.6 °F - 24.8 °F 65% 30.09 in 10.0 mi Calm Calm - N/A   Clear
10:35 PM 35.6 °F - 23.0 °F 60% 30.09 in 10.0 mi Calm Calm - N/A   Clear
10:55 PM 33.8 °F - 24.8 °F 70% 30.10 in 10.0 mi Calm Calm - N/A   Clear
11:15 PM 33.8 °F - 26.6 °F 75% 30.10 in 10.0 mi Calm Calm - N/A   Clear
11:35 PM 32.0 °F 28.7 °F 26.6 °F 80% 30.10 in 10.0 mi South 3.5 mph - N/A   Clear
11:55 PM 32.0 °F 28.7 °F 24.8 °F 75% 30.09 in 10.0 mi South 3.5 mph - N/A   Clear